sensor_id;sensor_type;location;lat;lon;timestamp;P1;durP1;ratioP1;P2;durP2;ratioP2
73650;SDS011;61944;52.538;6.108;2023-06-14T00:01:00;3.55;;;2.50;;
73650;SDS011;61944;52.538;6.108;2023-06-14T00:03:28;4.30;;;2.63;;
73650;SDS011;61944;52.538;6.108;2023-06-14T00:05:54;4.20;;;2.65;;
73650;SDS011;61944;52.538;6.108;2023-06-14T00:08:19;6.25;;;2.45;;
73650;SDS011;61944;52.538;6.108;2023-06-14T00:10:47;3.88;;;2.30;;
73650;SDS011;61944;52.538;6.108;2023-06-14T00:13:13;4.78;;;2.67;;
73650;SDS011;61944;52.538;6.108;2023-06-14T00:15:39;4.25;;;2.40;;
73650;SDS011;61944;52.538;6.108;2023-06-14T00:18:04;5.95;;;2.55;;
73650;SDS011;61944;52.538;6.108;2023-06-14T00:20:31;3.97;;;2.75;;
73650;SDS011;61944;52.538;6.108;2023-06-14T00:23:00;3.92;;;2.50;;
73650;SDS011;61944;52.538;6.108;2023-06-14T00:25:26;4.53;;;2.67;;
73650;SDS011;61944;52.538;6.108;2023-06-14T00:27:52;4.30;;;2.53;;
73650;SDS011;61944;52.538;6.108;2023-06-14T00:30:17;4.82;;;2.75;;
73650;SDS011;61944;52.538;6.108;2023-06-14T00:32:43;3.63;;;2.45;;
73650;SDS011;61944;52.538;6.108;2023-06-14T00:35:10;4.38;;;2.60;;
73650;SDS011;61944;52.538;6.108;2023-06-14T00:37:35;4.43;;;2.50;;
73650;SDS011;61944;52.538;6.108;2023-06-14T00:40:01;5.50;;;2.90;;
73650;SDS011;61944;52.538;6.108;2023-06-14T00:42:27;7.57;;;3.08;;
73650;SDS011;61944;52.538;6.108;2023-06-14T00:44:52;6.85;;;3.00;;
73650;SDS011;61944;52.538;6.108;2023-06-14T00:47:18;5.22;;;2.58;;
73650;SDS011;61944;52.538;6.108;2023-06-14T00:49:45;4.22;;;2.47;;
73650;SDS011;61944;52.538;6.108;2023-06-14T00:52:11;2.78;;;2.40;;
73650;SDS011;61944;52.538;6.108;2023-06-14T00:54:37;3.10;;;2.47;;
73650;SDS011;61944;52.538;6.108;2023-06-14T00:57:03;8.20;;;3.13;;
73650;SDS011;61944;52.538;6.108;2023-06-14T00:59:29;6.78;;;2.65;;
73650;SDS011;61944;52.538;6.108;2023-06-14T01:01:55;3.35;;;3.05;;
73650;SDS011;61944;52.538;6.108;2023-06-14T01:04:20;2.63;;;2.30;;
73650;SDS011;61944;52.538;6.108;2023-06-14T01:12:04;3.78;;;2.08;;
73650;SDS011;61944;52.538;6.108;2023-06-14T01:14:36;3.83;;;2.88;;
73650;SDS011;61944;52.538;6.108;2023-06-14T01:17:03;4.75;;;2.47;;
73650;SDS011;61944;52.538;6.108;2023-06-14T01:19:29;3.53;;;2.75;;
73650;SDS011;61944;52.538;6.108;2023-06-14T01:21:56;3.40;;;2.70;;
73650;SDS011;61944;52.538;6.108;2023-06-14T01:24:22;3.72;;;2.83;;
73650;SDS011;61944;52.538;6.108;2023-06-14T01:26:53;3.53;;;2.92;;
73650;SDS011;61944;52.538;6.108;2023-06-14T01:29:21;4.55;;;2.60;;
73650;SDS011;61944;52.538;6.108;2023-06-14T01:31:50;2.70;;;2.13;;
73650;SDS011;61944;52.538;6.108;2023-06-14T01:34:15;3.35;;;2.83;;
73650;SDS011;61944;52.538;6.108;2023-06-14T01:36:41;4.45;;;2.80;;
73650;SDS011;61944;52.538;6.108;2023-06-14T01:39:10;7.38;;;2.60;;
73650;SDS011;61944;52.538;6.108;2023-06-14T01:41:39;6.85;;;2.65;;
73650;SDS011;61944;52.538;6.108;2023-06-14T01:44:05;3.42;;;3.05;;
73650;SDS011;61944;52.538;6.108;2023-06-14T01:46:31;6.60;;;2.75;;
73650;SDS011;61944;52.538;6.108;2023-06-14T01:48:57;7.10;;;2.78;;
73650;SDS011;61944;52.538;6.108;2023-06-14T01:51:22;2.42;;;2.10;;
73650;SDS011;61944;52.538;6.108;2023-06-14T01:53:48;4.47;;;2.47;;
73650;SDS011;61944;52.538;6.108;2023-06-14T01:56:13;4.88;;;2.55;;
73650;SDS011;61944;52.538;6.108;2023-06-14T01:58:39;5.20;;;2.65;;
73650;SDS011;61944;52.538;6.108;2023-06-14T02:01:05;3.95;;;2.75;;
73650;SDS011;61944;52.538;6.108;2023-06-14T02:03:31;3.13;;;2.10;;
73650;SDS011;61944;52.538;6.108;2023-06-14T02:05:57;4.43;;;2.78;;
73650;SDS011;61944;52.538;6.108;2023-06-14T02:08:23;6.43;;;2.60;;
73650;SDS011;61944;52.538;6.108;2023-06-14T02:10:48;3.08;;;2.30;;
73650;SDS011;61944;52.538;6.108;2023-06-14T02:13:13;3.60;;;2.83;;
73650;SDS011;61944;52.538;6.108;2023-06-14T02:15:39;2.97;;;2.65;;
73650;SDS011;61944;52.538;6.108;2023-06-14T02:18:05;5.65;;;2.60;;
73650;SDS011;61944;52.538;6.108;2023-06-14T02:20:30;4.60;;;2.35;;
73650;SDS011;61944;52.538;6.108;2023-06-14T02:22:56;5.05;;;2.25;;
73650;SDS011;61944;52.538;6.108;2023-06-14T02:25:22;4.13;;;2.33;;
73650;SDS011;61944;52.538;6.108;2023-06-14T02:27:47;3.67;;;2.63;;
73650;SDS011;61944;52.538;6.108;2023-06-14T02:30:14;5.70;;;2.90;;
73650;SDS011;61944;52.538;6.108;2023-06-14T02:32:40;4.10;;;2.50;;
73650;SDS011;61944;52.538;6.108;2023-06-14T02:35:07;2.83;;;2.40;;
73650;SDS011;61944;52.538;6.108;2023-06-14T02:37:33;5.95;;;2.05;;
73650;SDS011;61944;52.538;6.108;2023-06-14T02:39:59;4.85;;;2.50;;
73650;SDS011;61944;52.538;6.108;2023-06-14T02:42:24;3.40;;;2.08;;
73650;SDS011;61944;52.538;6.108;2023-06-14T02:44:49;8.57;;;2.40;;
73650;SDS011;61944;52.538;6.108;2023-06-14T02:47:16;3.13;;;2.35;;
73650;SDS011;61944;52.538;6.108;2023-06-14T02:49:43;3.17;;;2.20;;
73650;SDS011;61944;52.538;6.108;2023-06-14T02:52:08;3.72;;;2.60;;
73650;SDS011;61944;52.538;6.108;2023-06-14T02:54:34;4.20;;;2.60;;
73650;SDS011;61944;52.538;6.108;2023-06-14T02:56:59;3.15;;;2.17;;
73650;SDS011;61944;52.538;6.108;2023-06-14T02:59:25;2.92;;;2.35;;
73650;SDS011;61944;52.538;6.108;2023-06-14T03:01:51;3.58;;;2.45;;
73650;SDS011;61944;52.538;6.108;2023-06-14T03:04:16;3.80;;;2.70;;
73650;SDS011;61944;52.538;6.108;2023-06-14T03:06:42;4.10;;;2.65;;
73650;SDS011;61944;52.538;6.108;2023-06-14T03:09:09;4.70;;;2.65;;
73650;SDS011;61944;52.538;6.108;2023-06-14T03:11:34;4.97;;;2.80;;
73650;SDS011;61944;52.538;6.108;2023-06-14T03:14:00;3.38;;;2.35;;
73650;SDS011;61944;52.538;6.108;2023-06-14T03:16:28;3.80;;;2.58;;
73650;SDS011;61944;52.538;6.108;2023-06-14T03:18:55;3.45;;;2.58;;
73650;SDS011;61944;52.538;6.108;2023-06-14T03:21:20;2.70;;;2.40;;
73650;SDS011;61944;52.538;6.108;2023-06-14T03:23:46;3.90;;;2.50;;
73650;SDS011;61944;52.538;6.108;2023-06-14T03:26:13;2.88;;;2.25;;
73650;SDS011;61944;52.538;6.108;2023-06-14T03:28:40;5.78;;;3.17;;
73650;SDS011;61944;52.538;6.108;2023-06-14T03:31:06;3.55;;;2.33;;
73650;SDS011;61944;52.538;6.108;2023-06-14T03:33:32;2.90;;;2.58;;
73650;SDS011;61944;52.538;6.108;2023-06-14T03:35:57;4.65;;;2.90;;
73650;SDS011;61944;52.538;6.108;2023-06-14T03:38:22;10.70;;;2.40;;
73650;SDS011;61944;52.538;6.108;2023-06-14T03:40:48;5.65;;;2.40;;
73650;SDS011;61944;52.538;6.108;2023-06-14T03:43:13;4.95;;;2.33;;
73650;SDS011;61944;52.538;6.108;2023-06-14T03:45:39;3.05;;;2.30;;
73650;SDS011;61944;52.538;6.108;2023-06-14T03:48:05;5.38;;;2.83;;
73650;SDS011;61944;52.538;6.108;2023-06-14T03:50:31;4.88;;;2.45;;
73650;SDS011;61944;52.538;6.108;2023-06-14T03:52:57;4.43;;;2.42;;
73650;SDS011;61944;52.538;6.108;2023-06-14T03:55:23;3.45;;;2.72;;
73650;SDS011;61944;52.538;6.108;2023-06-14T03:57:50;4.43;;;2.50;;
73650;SDS011;61944;52.538;6.108;2023-06-14T04:00:16;3.45;;;2.53;;
73650;SDS011;61944;52.538;6.108;2023-06-14T04:02:43;5.45;;;2.75;;
73650;SDS011;61944;52.538;6.108;2023-06-14T04:05:09;5.65;;;2.67;;
73650;SDS011;61944;52.538;6.108;2023-06-14T04:07:34;7.03;;;2.80;;
73650;SDS011;61944;52.538;6.108;2023-06-14T04:10:09;3.17;;;2.47;;
73650;SDS011;61944;52.538;6.108;2023-06-14T04:12:35;3.78;;;3.40;;
73650;SDS011;61944;52.538;6.108;2023-06-14T04:15:01;3.33;;;2.67;;
73650;SDS011;61944;52.538;6.108;2023-06-14T04:17:26;20.08;;;4.20;;
73650;SDS011;61944;52.538;6.108;2023-06-14T04:19:52;6.25;;;3.10;;
73650;SDS011;61944;52.538;6.108;2023-06-14T04:22:17;3.88;;;2.80;;
73650;SDS011;61944;52.538;6.108;2023-06-14T04:24:43;4.03;;;2.60;;
73650;SDS011;61944;52.538;6.108;2023-06-14T04:27:09;4.55;;;2.97;;
73650;SDS011;61944;52.538;6.108;2023-06-14T04:29:35;3.90;;;2.47;;
73650;SDS011;61944;52.538;6.108;2023-06-14T04:32:01;3.97;;;2.50;;
73650;SDS011;61944;52.538;6.108;2023-06-14T04:34:26;4.25;;;2.65;;
73650;SDS011;61944;52.538;6.108;2023-06-14T04:36:54;5.25;;;2.78;;
73650;SDS011;61944;52.538;6.108;2023-06-14T04:39:24;4.70;;;2.45;;
73650;SDS011;61944;52.538;6.108;2023-06-14T04:41:51;3.72;;;2.50;;
73650;SDS011;61944;52.538;6.108;2023-06-14T04:44:17;7.30;;;2.65;;
73650;SDS011;61944;52.538;6.108;2023-06-14T04:46:43;3.28;;;2.58;;
73650;SDS011;61944;52.538;6.108;2023-06-14T04:49:12;4.88;;;2.92;;
73650;SDS011;61944;52.538;6.108;2023-06-14T04:51:39;6.13;;;3.10;;
73650;SDS011;61944;52.538;6.108;2023-06-14T04:54:05;5.35;;;3.55;;
73650;SDS011;61944;52.538;6.108;2023-06-14T04:56:34;3.70;;;2.88;;
73650;SDS011;61944;52.538;6.108;2023-06-14T04:59:00;3.17;;;2.72;;
73650;SDS011;61944;52.538;6.108;2023-06-14T05:01:25;3.72;;;2.78;;
73650;SDS011;61944;52.538;6.108;2023-06-14T05:03:51;4.60;;;2.83;;
73650;SDS011;61944;52.538;6.108;2023-06-14T05:06:17;6.78;;;3.08;;
73650;SDS011;61944;52.538;6.108;2023-06-14T05:08:42;5.47;;;3.47;;
73650;SDS011;61944;52.538;6.108;2023-06-14T05:11:08;5.18;;;3.08;;
73650;SDS011;61944;52.538;6.108;2023-06-14T05:13:33;5.35;;;3.10;;
73650;SDS011;61944;52.538;6.108;2023-06-14T05:15:59;5.88;;;3.60;;
73650;SDS011;61944;52.538;6.108;2023-06-14T05:18:25;3.80;;;3.05;;
73650;SDS011;61944;52.538;6.108;2023-06-14T05:20:50;6.13;;;3.70;;
73650;SDS011;61944;52.538;6.108;2023-06-14T05:23:16;7.55;;;4.25;;
73650;SDS011;61944;52.538;6.108;2023-06-14T05:25:44;5.18;;;3.42;;
73650;SDS011;61944;52.538;6.108;2023-06-14T05:28:10;8.13;;;3.28;;
73650;SDS011;61944;52.538;6.108;2023-06-14T05:30:37;5.38;;;3.42;;
73650;SDS011;61944;52.538;6.108;2023-06-14T05:33:03;5.07;;;3.45;;
73650;SDS011;61944;52.538;6.108;2023-06-14T05:35:29;5.43;;;3.58;;
73650;SDS011;61944;52.538;6.108;2023-06-14T05:37:54;6.88;;;3.42;;
73650;SDS011;61944;52.538;6.108;2023-06-14T05:40:20;9.48;;;3.38;;
73650;SDS011;61944;52.538;6.108;2023-06-14T05:42:45;5.82;;;3.38;;
73650;SDS011;61944;52.538;6.108;2023-06-14T05:45:11;4.88;;;2.83;;
73650;SDS011;61944;52.538;6.108;2023-06-14T05:47:36;6.22;;;3.20;;
73650;SDS011;61944;52.538;6.108;2023-06-14T05:50:02;4.78;;;3.22;;
73650;SDS011;61944;52.538;6.108;2023-06-14T05:52:27;7.32;;;3.40;;
73650;SDS011;61944;52.538;6.108;2023-06-14T05:54:54;5.18;;;3.33;;
73650;SDS011;61944;52.538;6.108;2023-06-14T05:57:20;9.02;;;4.00;;
73650;SDS011;61944;52.538;6.108;2023-06-14T05:59:45;5.07;;;3.80;;
73650;SDS011;61944;52.538;6.108;2023-06-14T06:02:10;7.63;;;3.55;;
73650;SDS011;61944;52.538;6.108;2023-06-14T06:04:36;5.93;;;4.28;;
73650;SDS011;61944;52.538;6.108;2023-06-14T06:07:01;4.55;;;2.83;;
73650;SDS011;61944;52.538;6.108;2023-06-14T06:09:26;5.85;;;2.97;;
73650;SDS011;61944;52.538;6.108;2023-06-14T06:11:52;4.45;;;3.13;;
73650;SDS011;61944;52.538;6.108;2023-06-14T06:14:17;5.47;;;3.20;;
73650;SDS011;61944;52.538;6.108;2023-06-14T06:16:42;5.22;;;2.67;;
73650;SDS011;61944;52.538;6.108;2023-06-14T06:19:08;5.10;;;3.35;;
73650;SDS011;61944;52.538;6.108;2023-06-14T06:21:33;7.28;;;3.38;;
73650;SDS011;61944;52.538;6.108;2023-06-14T06:23:58;4.13;;;3.42;;
73650;SDS011;61944;52.538;6.108;2023-06-14T06:26:24;11.13;;;3.63;;
73650;SDS011;61944;52.538;6.108;2023-06-14T06:28:51;3.95;;;3.20;;
73650;SDS011;61944;52.538;6.108;2023-06-14T06:31:17;4.88;;;3.17;;
73650;SDS011;61944;52.538;6.108;2023-06-14T06:33:42;6.95;;;2.95;;
73650;SDS011;61944;52.538;6.108;2023-06-14T06:36:08;4.20;;;3.00;;
73650;SDS011;61944;52.538;6.108;2023-06-14T06:38:33;11.85;;;3.45;;
73650;SDS011;61944;52.538;6.108;2023-06-14T06:40:58;4.28;;;2.92;;
73650;SDS011;61944;52.538;6.108;2023-06-14T06:43:24;6.03;;;2.60;;
73650;SDS011;61944;52.538;6.108;2023-06-14T06:45:49;4.18;;;2.60;;
73650;SDS011;61944;52.538;6.108;2023-06-14T06:48:14;5.25;;;3.00;;
73650;SDS011;61944;52.538;6.108;2023-06-14T06:50:40;9.38;;;3.17;;
73650;SDS011;61944;52.538;6.108;2023-06-14T06:53:06;4.65;;;2.63;;
73650;SDS011;61944;52.538;6.108;2023-06-14T06:55:32;4.03;;;2.75;;
73650;SDS011;61944;52.538;6.108;2023-06-14T06:57:57;4.78;;;2.45;;
73650;SDS011;61944;52.538;6.108;2023-06-14T07:00:23;3.70;;;2.47;;
73650;SDS011;61944;52.538;6.108;2023-06-14T07:02:48;3.42;;;2.55;;
73650;SDS011;61944;52.538;6.108;2023-06-14T07:05:14;5.18;;;2.38;;
73650;SDS011;61944;52.538;6.108;2023-06-14T07:07:39;6.97;;;2.80;;
73650;SDS011;61944;52.538;6.108;2023-06-14T07:10:05;7.93;;;3.50;;
73650;SDS011;61944;52.538;6.108;2023-06-14T07:12:31;21.25;;;6.68;;
73650;SDS011;61944;52.538;6.108;2023-06-14T07:14:59;9.07;;;3.60;;
73650;SDS011;61944;52.538;6.108;2023-06-14T07:17:25;10.43;;;2.67;;
73650;SDS011;61944;52.538;6.108;2023-06-14T07:19:50;2.88;;;1.90;;
73650;SDS011;61944;52.538;6.108;2023-06-14T07:22:16;4.55;;;2.35;;
73650;SDS011;61944;52.538;6.108;2023-06-14T07:24:41;3.20;;;2.17;;
73650;SDS011;61944;52.538;6.108;2023-06-14T07:27:07;2.72;;;2.20;;
73650;SDS011;61944;52.538;6.108;2023-06-14T07:29:33;4.22;;;2.10;;
73650;SDS011;61944;52.538;6.108;2023-06-14T07:31:58;3.50;;;2.40;;
73650;SDS011;61944;52.538;6.108;2023-06-14T07:34:23;2.35;;;2.15;;
73650;SDS011;61944;52.538;6.108;2023-06-14T07:36:49;4.18;;;2.85;;
73650;SDS011;61944;52.538;6.108;2023-06-14T07:39:14;2.75;;;2.30;;
73650;SDS011;61944;52.538;6.108;2023-06-14T07:41:40;3.40;;;2.10;;
73650;SDS011;61944;52.538;6.108;2023-06-14T07:44:05;4.30;;;2.15;;
73650;SDS011;61944;52.538;6.108;2023-06-14T07:46:30;3.53;;;2.50;;
73650;SDS011;61944;52.538;6.108;2023-06-14T07:48:56;3.38;;;2.22;;
73650;SDS011;61944;52.538;6.108;2023-06-14T07:51:22;3.10;;;2.00;;
73650;SDS011;61944;52.538;6.108;2023-06-14T07:53:48;3.67;;;2.45;;
73650;SDS011;61944;52.538;6.108;2023-06-14T07:56:13;3.05;;;2.08;;
73650;SDS011;61944;52.538;6.108;2023-06-14T07:58:39;2.80;;;2.00;;
73650;SDS011;61944;52.538;6.108;2023-06-14T08:01:04;3.88;;;1.85;;
73650;SDS011;61944;52.538;6.108;2023-06-14T08:03:31;5.07;;;2.28;;
73650;SDS011;61944;52.538;6.108;2023-06-14T08:05:57;5.28;;;2.17;;
73650;SDS011;61944;52.538;6.108;2023-06-14T08:08:23;3.17;;;2.30;;
73650;SDS011;61944;52.538;6.108;2023-06-14T08:10:48;5.82;;;2.38;;
73650;SDS011;61944;52.538;6.108;2023-06-14T08:13:13;3.25;;;2.30;;
73650;SDS011;61944;52.538;6.108;2023-06-14T08:15:39;3.67;;;2.17;;
73650;SDS011;61944;52.538;6.108;2023-06-14T08:18:04;3.45;;;2.67;;
73650;SDS011;61944;52.538;6.108;2023-06-14T08:20:30;2.60;;;2.30;;
73650;SDS011;61944;52.538;6.108;2023-06-14T08:22:56;2.63;;;2.22;;
73650;SDS011;61944;52.538;6.108;2023-06-14T08:25:22;4.03;;;2.08;;
73650;SDS011;61944;52.538;6.108;2023-06-14T08:27:48;4.43;;;2.10;;
73650;SDS011;61944;52.538;6.108;2023-06-14T08:30:13;3.55;;;2.17;;
73650;SDS011;61944;52.538;6.108;2023-06-14T08:32:39;2.95;;;2.10;;
73650;SDS011;61944;52.538;6.108;2023-06-14T08:35:04;2.20;;;1.92;;
73650;SDS011;61944;52.538;6.108;2023-06-14T08:37:30;3.03;;;2.00;;
73650;SDS011;61944;52.538;6.108;2023-06-14T08:39:56;2.42;;;2.00;;
73650;SDS011;61944;52.538;6.108;2023-06-14T08:42:21;3.08;;;2.13;;
73650;SDS011;61944;52.538;6.108;2023-06-14T08:44:49;4.13;;;1.80;;
73650;SDS011;61944;52.538;6.108;2023-06-14T08:47:15;2.28;;;2.08;;
73650;SDS011;61944;52.538;6.108;2023-06-14T08:49:43;4.10;;;2.22;;
73650;SDS011;61944;52.538;6.108;2023-06-14T08:52:12;4.85;;;2.17;;
73650;SDS011;61944;52.538;6.108;2023-06-14T08:54:40;3.28;;;1.75;;
73650;SDS011;61944;52.538;6.108;2023-06-14T08:57:10;3.40;;;2.08;;
73650;SDS011;61944;52.538;6.108;2023-06-14T08:59:37;2.72;;;1.60;;
73650;SDS011;61944;52.538;6.108;2023-06-14T09:02:11;4.00;;;1.67;;
73650;SDS011;61944;52.538;6.108;2023-06-14T09:04:38;2.60;;;1.83;;
73650;SDS011;61944;52.538;6.108;2023-06-14T09:07:04;2.50;;;1.65;;
73650;SDS011;61944;52.538;6.108;2023-06-14T09:09:31;3.92;;;2.05;;
73650;SDS011;61944;52.538;6.108;2023-06-14T09:11:57;3.00;;;1.92;;
73650;SDS011;61944;52.538;6.108;2023-06-14T09:14:23;3.88;;;2.10;;
73650;SDS011;61944;52.538;6.108;2023-06-14T09:16:53;2.83;;;2.47;;
73650;SDS011;61944;52.538;6.108;2023-06-14T09:19:25;3.47;;;2.35;;
73650;SDS011;61944;52.538;6.108;2023-06-14T09:21:51;5.20;;;2.20;;
73650;SDS011;61944;52.538;6.108;2023-06-14T09:24:18;2.78;;;2.47;;
73650;SDS011;61944;52.538;6.108;2023-06-14T09:26:46;2.50;;;1.67;;
73650;SDS011;61944;52.538;6.108;2023-06-14T09:29:12;4.13;;;2.35;;
73650;SDS011;61944;52.538;6.108;2023-06-14T09:31:38;5.07;;;2.00;;
73650;SDS011;61944;52.538;6.108;2023-06-14T09:34:04;2.47;;;1.95;;
73650;SDS011;61944;52.538;6.108;2023-06-14T09:36:31;2.42;;;1.85;;
73650;SDS011;61944;52.538;6.108;2023-06-14T09:38:57;2.38;;;2.00;;
73650;SDS011;61944;52.538;6.108;2023-06-14T09:41:35;2.75;;;1.88;;
73650;SDS011;61944;52.538;6.108;2023-06-14T09:44:03;2.40;;;1.77;;
73650;SDS011;61944;52.538;6.108;2023-06-14T09:46:30;2.95;;;1.67;;
73650;SDS011;61944;52.538;6.108;2023-06-14T09:48:56;2.70;;;1.88;;
73650;SDS011;61944;52.538;6.108;2023-06-14T09:51:22;3.53;;;1.58;;
73650;SDS011;61944;52.538;6.108;2023-06-14T09:53:48;2.63;;;1.50;;
73650;SDS011;61944;52.538;6.108;2023-06-14T09:56:28;1.83;;;1.73;;
73650;SDS011;61944;52.538;6.108;2023-06-14T09:58:58;2.25;;;1.83;;
73650;SDS011;61944;52.538;6.108;2023-06-14T10:01:24;3.33;;;2.38;;
73650;SDS011;61944;52.538;6.108;2023-06-14T10:04:01;3.90;;;1.90;;
73650;SDS011;61944;52.538;6.108;2023-06-14T10:06:29;2.70;;;2.33;;
73650;SDS011;61944;52.538;6.108;2023-06-14T10:08:56;2.42;;;1.83;;
73650;SDS011;61944;52.538;6.108;2023-06-14T10:11:26;4.72;;;2.20;;
73650;SDS011;61944;52.538;6.108;2023-06-14T10:13:55;2.83;;;1.95;;
73650;SDS011;61944;52.538;6.108;2023-06-14T10:16:30;3.40;;;1.80;;
73650;SDS011;61944;52.538;6.108;2023-06-14T10:23:48;2.47;;;1.67;;
73650;SDS011;61944;52.538;6.108;2023-06-14T10:26:21;2.80;;;1.88;;
73650;SDS011;61944;52.538;6.108;2023-06-14T10:31:23;2.13;;;1.58;;
73650;SDS011;61944;52.538;6.108;2023-06-14T10:34:05;3.67;;;1.50;;
73650;SDS011;61944;52.538;6.108;2023-06-14T10:36:30;2.63;;;1.75;;
73650;SDS011;61944;52.538;6.108;2023-06-14T10:41:26;1.20;;;1.10;;
73650;SDS011;61944;52.538;6.108;2023-06-14T10:44:10;2.45;;;1.60;;
73650;SDS011;61944;52.538;6.108;2023-06-14T10:46:38;2.42;;;1.63;;
73650;SDS011;61944;52.538;6.108;2023-06-14T10:49:17;2.63;;;1.42;;
73650;SDS011;61944;52.538;6.108;2023-06-14T10:51:51;2.83;;;1.75;;
73650;SDS011;61944;52.538;6.108;2023-06-14T10:54:20;5.13;;;1.73;;
73650;SDS011;61944;52.538;6.108;2023-06-14T10:56:46;3.17;;;2.05;;
73650;SDS011;61944;52.538;6.108;2023-06-14T10:59:13;2.42;;;1.95;;
73650;SDS011;61944;52.538;6.108;2023-06-14T11:01:58;1.92;;;1.60;;
73650;SDS011;61944;52.538;6.108;2023-06-14T11:04:48;2.67;;;1.90;;
73650;SDS011;61944;52.538;6.108;2023-06-14T11:07:27;4.32;;;2.20;;
73650;SDS011;61944;52.538;6.108;2023-06-14T11:12:48;2.28;;;1.65;;
73650;SDS011;61944;52.538;6.108;2023-06-14T11:15:14;2.97;;;2.00;;
73650;SDS011;61944;52.538;6.108;2023-06-14T11:17:49;2.33;;;2.13;;
73650;SDS011;61944;52.538;6.108;2023-06-14T11:20:16;2.47;;;1.67;;
73650;SDS011;61944;52.538;6.108;2023-06-14T11:22:42;2.67;;;1.60;;
73650;SDS011;61944;52.538;6.108;2023-06-14T11:25:11;3.47;;;1.60;;
73650;SDS011;61944;52.538;6.108;2023-06-14T11:27:37;2.53;;;2.17;;
73650;SDS011;61944;52.538;6.108;2023-06-14T11:30:03;3.70;;;2.00;;
73650;SDS011;61944;52.538;6.108;2023-06-14T11:32:30;1.92;;;1.70;;
73650;SDS011;61944;52.538;6.108;2023-06-14T11:34:56;1.90;;;1.60;;
73650;SDS011;61944;52.538;6.108;2023-06-14T11:37:23;2.80;;;1.73;;
73650;SDS011;61944;52.538;6.108;2023-06-14T11:39:51;2.75;;;2.00;;
73650;SDS011;61944;52.538;6.108;2023-06-14T11:42:16;3.65;;;1.73;;
73650;SDS011;61944;52.538;6.108;2023-06-14T11:44:42;2.13;;;1.58;;
73650;SDS011;61944;52.538;6.108;2023-06-14T11:47:07;2.00;;;1.38;;
73650;SDS011;61944;52.538;6.108;2023-06-14T11:49:36;3.15;;;1.63;;
73650;SDS011;61944;52.538;6.108;2023-06-14T11:52:01;2.20;;;1.77;;
73650;SDS011;61944;52.538;6.108;2023-06-14T11:54:27;2.40;;;1.75;;
73650;SDS011;61944;52.538;6.108;2023-06-14T11:56:53;2.20;;;1.98;;
73650;SDS011;61944;52.538;6.108;2023-06-14T11:59:18;2.30;;;1.58;;
73650;SDS011;61944;52.538;6.108;2023-06-14T12:01:45;4.05;;;2.13;;
73650;SDS011;61944;52.538;6.108;2023-06-14T12:04:12;1.70;;;1.58;;
73650;SDS011;61944;52.538;6.108;2023-06-14T12:06:38;4.75;;;1.63;;
73650;SDS011;61944;52.538;6.108;2023-06-14T12:09:07;1.95;;;1.70;;
73650;SDS011;61944;52.538;6.108;2023-06-14T12:11:38;3.05;;;2.05;;
73650;SDS011;61944;52.538;6.108;2023-06-14T12:14:04;4.32;;;1.95;;
73650;SDS011;61944;52.538;6.108;2023-06-14T12:16:30;2.90;;;1.95;;
73650;SDS011;61944;52.538;6.108;2023-06-14T12:18:59;2.53;;;1.63;;
73650;SDS011;61944;52.538;6.108;2023-06-14T12:21:27;2.55;;;1.40;;
73650;SDS011;61944;52.538;6.108;2023-06-14T12:23:53;4.20;;;1.80;;
73650;SDS011;61944;52.538;6.108;2023-06-14T12:26:19;3.65;;;2.10;;
73650;SDS011;61944;52.538;6.108;2023-06-14T12:28:45;4.00;;;2.03;;
73650;SDS011;61944;52.538;6.108;2023-06-14T12:31:12;3.35;;;2.38;;
73650;SDS011;61944;52.538;6.108;2023-06-14T12:33:38;1.60;;;1.50;;
73650;SDS011;61944;52.538;6.108;2023-06-14T12:36:09;2.05;;;1.45;;
73650;SDS011;61944;52.538;6.108;2023-06-14T12:38:35;2.95;;;1.27;;
73650;SDS011;61944;52.538;6.108;2023-06-14T12:41:01;2.67;;;1.80;;
73650;SDS011;61944;52.538;6.108;2023-06-14T12:43:27;1.65;;;1.40;;
73650;SDS011;61944;52.538;6.108;2023-06-14T12:45:52;2.10;;;1.60;;
73650;SDS011;61944;52.538;6.108;2023-06-14T12:48:19;2.67;;;1.30;;
73650;SDS011;61944;52.538;6.108;2023-06-14T12:50:45;1.80;;;1.65;;
73650;SDS011;61944;52.538;6.108;2023-06-14T12:53:10;2.67;;;1.63;;
73650;SDS011;61944;52.538;6.108;2023-06-14T12:55:36;4.15;;;1.77;;
73650;SDS011;61944;52.538;6.108;2023-06-14T12:58:01;3.17;;;1.98;;
73650;SDS011;61944;52.538;6.108;2023-06-14T13:00:26;3.17;;;1.60;;
73650;SDS011;61944;52.538;6.108;2023-06-14T13:02:52;4.15;;;1.80;;
73650;SDS011;61944;52.538;6.108;2023-06-14T13:05:17;2.13;;;1.63;;
73650;SDS011;61944;52.538;6.108;2023-06-14T13:07:43;4.47;;;1.80;;
73650;SDS011;61944;52.538;6.108;2023-06-14T13:10:09;2.45;;;1.77;;
73650;SDS011;61944;52.538;6.108;2023-06-14T13:12:35;2.13;;;1.75;;
73650;SDS011;61944;52.538;6.108;2023-06-14T13:15:00;3.83;;;2.03;;
73650;SDS011;61944;52.538;6.108;2023-06-14T13:17:25;2.92;;;1.90;;
73650;SDS011;61944;52.538;6.108;2023-06-14T13:19:51;2.40;;;1.83;;
73650;SDS011;61944;52.538;6.108;2023-06-14T13:22:16;3.17;;;1.40;;
73650;SDS011;61944;52.538;6.108;2023-06-14T13:24:41;2.95;;;1.63;;
73650;SDS011;61944;52.538;6.108;2023-06-14T13:27:07;4.43;;;1.95;;
73650;SDS011;61944;52.538;6.108;2023-06-14T13:29:32;2.47;;;1.73;;
73650;SDS011;61944;52.538;6.108;2023-06-14T13:32:00;3.33;;;1.90;;
73650;SDS011;61944;52.538;6.108;2023-06-14T13:34:26;2.08;;;1.80;;
73650;SDS011;61944;52.538;6.108;2023-06-14T13:36:51;4.03;;;1.80;;
73650;SDS011;61944;52.538;6.108;2023-06-14T13:39:17;3.70;;;1.95;;
73650;SDS011;61944;52.538;6.108;2023-06-14T13:41:42;1.63;;;1.27;;
73650;SDS011;61944;52.538;6.108;2023-06-14T13:44:07;3.65;;;1.80;;
73650;SDS011;61944;52.538;6.108;2023-06-14T13:46:33;3.53;;;1.50;;
73650;SDS011;61944;52.538;6.108;2023-06-14T13:48:58;5.50;;;2.00;;
73650;SDS011;61944;52.538;6.108;2023-06-14T13:51:25;3.83;;;2.33;;
73650;SDS011;61944;52.538;6.108;2023-06-14T13:53:52;2.78;;;1.60;;
73650;SDS011;61944;52.538;6.108;2023-06-14T13:56:18;3.50;;;1.60;;
73650;SDS011;61944;52.538;6.108;2023-06-14T13:58:43;3.10;;;1.70;;
73650;SDS011;61944;52.538;6.108;2023-06-14T14:01:09;1.60;;;1.50;;
73650;SDS011;61944;52.538;6.108;2023-06-14T14:03:36;2.47;;;1.88;;
73650;SDS011;61944;52.538;6.108;2023-06-14T14:06:04;2.72;;;2.00;;
73650;SDS011;61944;52.538;6.108;2023-06-14T14:08:31;3.65;;;1.88;;
73650;SDS011;61944;52.538;6.108;2023-06-14T14:10:56;6.70;;;1.90;;
73650;SDS011;61944;52.538;6.108;2023-06-14T14:13:22;2.92;;;2.35;;
73650;SDS011;61944;52.538;6.108;2023-06-14T14:15:47;4.32;;;2.00;;
73650;SDS011;61944;52.538;6.108;2023-06-14T14:18:14;2.47;;;1.70;;
73650;SDS011;61944;52.538;6.108;2023-06-14T14:20:40;2.33;;;1.70;;
73650;SDS011;61944;52.538;6.108;2023-06-14T14:23:05;3.35;;;2.28;;
73650;SDS011;61944;52.538;6.108;2023-06-14T14:25:31;3.38;;;1.80;;
73650;SDS011;61944;52.538;6.108;2023-06-14T14:27:56;2.22;;;1.65;;
73650;SDS011;61944;52.538;6.108;2023-06-14T14:30:21;4.43;;;2.10;;
73650;SDS011;61944;52.538;6.108;2023-06-14T14:32:48;2.67;;;1.60;;
73650;SDS011;61944;52.538;6.108;2023-06-14T14:35:16;2.10;;;1.60;;
73650;SDS011;61944;52.538;6.108;2023-06-14T14:37:42;2.15;;;1.55;;
73650;SDS011;61944;52.538;6.108;2023-06-14T14:40:07;1.70;;;1.42;;
73650;SDS011;61944;52.538;6.108;2023-06-14T14:42:37;2.33;;;1.58;;
73650;SDS011;61944;52.538;6.108;2023-06-14T14:45:02;2.75;;;1.38;;
73650;SDS011;61944;52.538;6.108;2023-06-14T14:47:28;2.17;;;1.65;;
73650;SDS011;61944;52.538;6.108;2023-06-14T14:49:53;3.72;;;2.03;;
73650;SDS011;61944;52.538;6.108;2023-06-14T14:52:18;1.48;;;1.35;;
73650;SDS011;61944;52.538;6.108;2023-06-14T14:54:44;3.53;;;1.80;;
73650;SDS011;61944;52.538;6.108;2023-06-14T14:57:09;2.08;;;1.70;;
73650;SDS011;61944;52.538;6.108;2023-06-14T14:59:35;1.85;;;1.40;;
73650;SDS011;61944;52.538;6.108;2023-06-14T15:02:00;1.88;;;1.50;;